KTRL/TRL METAR and TAF weather

Enter ICAO airport designator
Station Type Date Time Source
KTRL METAR 2022/01/18 05:53 UTC NOAA

KTRL 180553Z AUTO 16006KT 10SM CLR 07/M01 A3004 RMK AO2 SLP170 T00721011 10133 20050 401721039 56009


Station Type Date Time Source
KTRL Decoded METAR 2022/01/18 05:53 UTC NOAA

TERRELL MUNICIPAL AIRPORT, TX, United States (KTRL) 32-43N 96-16W 144M
Jan 18, 2022 - 12:53 AM EST / 2022.01.18 0553 UTC
Wind: from the SSE (160 degrees) at 7 MPH (6 KT):0
Visibility: 10 mile(s):0
Sky conditions: clear
Temperature: 45.0 F (7.2 C)
Dew Point: 30.0 F (-1.1 C)
Relative Humidity: 55%
Pressure (altimeter): 30.04 in. Hg (1017 hPa)
Pressure tendency: 0.03 inches (0.9 hPa) lower than three hours ago
ob: KTRL 180553Z AUTO 16006KT 10SM CLR 07/M01 A3004 RMK AO2 SLP170 T00721011 10133 20050 401721039 56009
cycle: 6

Station Type Date Time Source
KTRL TAF UTC NOAA

Error!

Example: see airport list